Time;durP1;ratioP1;P1;durP2;ratioP2;P2;SDS_P1;SDS_P2;PMS_P1;PMS_P2;Temp;Humidity;BMP_temperature;BMP_pressure;BME280_temperature;BME280_humidity;BME280_pressure;Samples;Min_cycle;Max_cycle;Signal;HPM_P1;HPM_P2
2023/04/22 00:00:01;;;;;;;1.40;1.15;;;21.40;42.50;;;;;;5053146;28;20029;-50
2023/04/22 00:02:28;;;;;;;2.45;1.40;;;21.50;42.60;;;;;;5053388;28;20102;-50
2023/04/22 00:04:56;;;;;;;1.20;1.10;;;21.40;42.60;;;;;;5052476;28;20039;-54
2023/04/22 00:07:22;;;;;;;1.92;1.30;;;21.50;42.60;;;;;;5051530;28;20040;-54
2023/04/22 00:09:48;;;;;;;2.05;1.40;;;21.50;42.60;;;;;;5052688;28;20383;-54
2023/04/22 00:12:14;;;;;;;2.05;1.60;;;21.50;42.60;;;;;;5053012;28;20025;-51
2023/04/22 00:14:40;;;;;;;1.45;1.20;;;21.50;42.50;;;;;;5052465;28;20091;-49
2023/04/22 00:17:06;;;;;;;1.77;1.45;;;21.50;42.50;;;;;;5050869;28;20115;-54
2023/04/22 00:19:32;;;;;;;2.65;1.17;;;21.50;42.40;;;;;;5051923;28;20400;-49
2023/04/22 00:21:58;;;;;;;1.73;1.40;;;21.50;42.40;;;;;;5052620;28;20036;-50
2023/04/22 00:24:24;;;;;;;1.13;0.98;;;21.50;42.30;;;;;;5057980;28;20083;-50
2023/04/22 00:26:50;;;;;;;1.58;1.10;;;21.50;42.20;;;;;;5063496;28;20029;-48
2023/04/22 00:29:16;;;;;;;1.70;1.40;;;21.50;42.20;;;;;;5055026;28;20498;-51
2023/04/22 00:31:41;;;;;;;1.42;1.10;;;21.50;42.20;;;;;;5051027;28;20025;-54
2023/04/22 00:34:07;;;;;;;1.85;1.33;;;21.50;42.10;;;;;;5054704;28;20031;-53
2023/04/22 00:36:33;;;;;;;1.30;1.20;;;21.50;42.10;;;;;;5051622;28;20380;-54
2023/04/22 00:38:59;;;;;;;1.52;1.20;;;21.50;42.10;;;;;;5052819;28;20040;-50
2023/04/22 00:41:26;;;;;;;1.95;1.50;;;21.50;42.00;;;;;;5051500;28;20043;-47
2023/04/22 00:43:52;;;;;;;2.35;1.20;;;21.50;42.00;;;;;;5051814;28;20068;-51
2023/04/22 00:46:19;;;;;;;3.65;1.10;;;21.50;42.00;;;;;;5050890;28;20533;-47
2023/04/22 00:48:45;;;;;;;1.55;1.20;;;21.50;41.90;;;;;;5052641;28;20037;-52
2023/04/22 00:51:11;;;;;;;1.23;1.00;;;21.50;41.90;;;;;;5052293;28;20060;-54
2023/04/22 00:53:37;;;;;;;1.77;0.85;;;21.50;41.90;;;;;;5050551;28;20507;-49
2023/04/22 00:56:03;;;;;;;2.45;1.00;;;21.50;41.90;;;;;;5051220;28;20091;-52
2023/04/22 00:58:30;;;;;;;1.50;1.10;;;21.50;41.80;;;;;;5052794;28;20025;-48
2023/04/22 01:00:57;;;;;;;1.50;1.08;;;21.50;41.80;;;;;;5052010;28;20028;-51
2023/04/22 01:03:23;;;;;;;1.42;1.10;;;21.50;41.70;;;;;;5053774;28;20040;-51
2023/04/22 01:05:49;;;;;;;1.92;1.00;;;21.50;41.70;;;;;;5049855;28;20045;-52
2023/04/22 01:08:16;;;;;;;1.55;1.25;;;21.60;41.80;;;;;;5050816;28;20029;-48
2023/04/22 01:10:42;;;;;;;1.42;1.08;;;21.50;41.80;;;;;;5051404;28;20025;-48
2023/04/22 01:13:08;;;;;;;1.65;1.00;;;21.50;41.80;;;;;;5050988;28;20027;-50
2023/04/22 01:15:35;;;;;;;1.50;1.27;;;21.50;41.70;;;;;;5052091;28;20056;-51
2023/04/22 01:18:01;;;;;;;1.40;1.10;;;21.50;42.30;;;;;;5051815;28;20518;-46
2023/04/22 01:20:30;;;;;;;1.10;1.00;;;21.60;41.70;;;;;;5052080;28;20079;-50
2023/04/22 01:23:00;;;;;;;1.80;0.98;;;21.50;41.60;;;;;;5049625;28;20520;-50
2023/04/22 01:25:26;;;;;;;2.25;1.17;;;21.50;41.60;;;;;;5050981;28;20103;-48
2023/04/22 01:27:53;;;;;;;1.15;1.02;;;21.50;41.50;;;;;;5054156;28;20689;-47
2023/04/22 01:30:19;;;;;;;1.45;1.15;;;21.50;41.50;;;;;;5055845;28;20028;-52
2023/04/22 01:32:45;;;;;;;1.20;1.10;;;21.50;41.40;;;;;;5061351;28;20078;-49
2023/04/22 01:35:11;;;;;;;1.08;0.98;;;21.50;41.40;;;;;;5052484;28;20025;-50
2023/04/22 01:37:37;;;;;;;1.27;1.05;;;21.50;41.40;;;;;;5054783;28;20505;-49
2023/04/22 01:40:04;;;;;;;1.27;1.17;;;21.50;41.40;;;;;;5053300;28;20041;-51
2023/04/22 01:42:30;;;;;;;1.80;1.17;;;21.50;41.40;;;;;;5055826;28;20041;-52
2023/04/22 01:44:56;;;;;;;1.42;0.90;;;21.50;41.30;;;;;;5054238;28;20174;-52
2023/04/22 01:47:23;;;;;;;1.50;1.15;;;21.50;41.30;;;;;;5054317;28;20029;-50
2023/04/22 01:49:50;;;;;;;1.00;0.90;;;21.50;41.30;;;;;;5052496;28;20025;-51
2023/04/22 01:52:18;;;;;;;1.63;1.10;;;21.50;41.30;;;;;;5054556;28;20032;-51
2023/04/22 01:54:44;;;;;;;1.48;1.23;;;21.50;41.30;;;;;;5054013;28;20016;-53
2023/04/22 01:57:12;;;;;;;1.17;1.08;;;21.50;41.30;;;;;;5055569;28;20025;-51
2023/04/22 01:59:39;;;;;;;0.90;0.80;;;21.50;41.30;;;;;;5053653;28;20106;-51
2023/04/22 02:02:05;;;;;;;1.00;0.90;;;21.50;41.30;;;;;;5055115;28;20249;-47
2023/04/22 02:04:31;;;;;;;1.10;1.00;;;21.50;41.30;;;;;;5053074;28;20153;-48
2023/04/22 02:06:57;;;;;;;1.83;1.17;;;21.50;41.30;;;;;;5054786;28;20032;-49
2023/04/22 02:09:23;;;;;;;1.60;1.13;;;21.50;41.30;;;;;;5054372;28;20368;-52
2023/04/22 02:11:49;;;;;;;1.15;0.90;;;21.50;41.30;;;;;;5053427;28;20376;-53
2023/04/22 02:14:15;;;;;;;1.52;1.15;;;21.50;41.30;;;;;;5054829;28;20031;-49
2023/04/22 02:16:41;;;;;;;1.45;1.10;;;21.50;41.30;;;;;;5053080;28;20029;-50
2023/04/22 02:19:07;;;;;;;1.50;0.98;;;21.50;41.30;;;;;;5056644;28;20025;-51
2023/04/22 02:21:33;;;;;;;1.30;1.05;;;21.50;41.30;;;;;;5053913;28;20025;-48
2023/04/22 02:23:59;;;;;;;1.20;1.10;;;21.50;41.30;;;;;;5051625;28;20047;-50
2023/04/22 02:26:27;;;;;;;1.58;1.40;;;21.50;41.20;;;;;;5053314;28;20032;-48
2023/04/22 02:28:53;;;;;;;1.45;1.13;;;21.50;41.20;;;;;;5052689;28;20028;-50
2023/04/22 02:31:19;;;;;;;1.88;1.15;;;21.50;41.20;;;;;;5053842;28;20025;-52
2023/04/22 02:33:45;;;;;;;1.08;0.90;;;21.50;41.30;;;;;;5054284;28;20452;-52
2023/04/22 02:36:11;;;;;;;1.52;1.08;;;21.50;41.30;;;;;;5052748;28;20067;-52
2023/04/22 02:38:37;;;;;;;1.90;1.10;;;21.50;41.30;;;;;;5052280;28;20025;-51
2023/04/22 02:41:03;;;;;;;1.42;1.20;;;21.50;41.30;;;;;;5053556;28;20147;-55
2023/04/22 02:43:30;;;;;;;2.60;1.10;;;21.40;41.30;;;;;;5053506;28;20037;-53
2023/04/22 02:45:55;;;;;;;1.40;1.25;;;21.40;41.30;;;;;;5051224;28;20045;-54
2023/04/22 02:48:21;;;;;;;2.17;1.30;;;21.50;41.40;;;;;;5068261;28;20113;-48
2023/04/22 02:50:47;;;;;;;1.10;1.00;;;21.50;41.30;;;;;;5054415;28;20108;-51
2023/04/22 02:53:13;;;;;;;2.97;1.40;;;21.50;41.30;;;;;;5053271;28;20025;-52
2023/04/22 02:55:40;;;;;;;1.38;1.10;;;21.50;41.30;;;;;;5053357;28;20033;-49
2023/04/22 02:58:07;;;;;;;1.52;1.10;;;21.40;41.90;;;;;;5050132;28;20017;-50
2023/04/22 03:00:34;;;;;;;1.60;1.10;;;21.40;41.30;;;;;;5052014;28;20120;-50
2023/04/22 03:03:00;;;;;;;1.50;1.38;;;21.40;41.30;;;;;;5053081;28;20037;-48
2023/04/22 03:05:29;;;;;;;1.58;1.27;;;21.50;41.30;;;;;;5036589;28;20036;-49
2023/04/22 03:07:55;;;;;;;1.70;1.50;;;21.50;41.30;;;;;;5054303;28;20021;-49
2023/04/22 03:10:21;;;;;;;1.23;1.10;;;21.50;41.40;;;;;;5052456;28;20055;-54
2023/04/22 03:12:47;;;;;;;1.45;1.20;;;21.40;41.30;;;;;;5052938;28;20029;-50
2023/04/22 03:15:14;;;;;;;1.42;1.25;;;21.40;41.30;;;;;;5052853;28;20036;-50
2023/04/22 03:17:40;;;;;;;1.30;1.20;;;21.40;41.30;;;;;;5051912;28;20025;-53
2023/04/22 03:20:10;;;;;;;2.03;1.33;;;21.40;41.30;;;;;;5051019;28;20017;-52
2023/04/22 03:22:36;;;;;;;1.48;1.38;;;21.50;41.40;;;;;;5050839;28;20049;-50
2023/04/22 03:25:04;;;;;;;1.70;1.30;;;21.40;41.30;;;;;;5052701;28;20037;-50
2023/04/22 03:27:30;;;;;;;1.85;1.20;;;21.40;41.30;;;;;;5052557;28;20036;-49
2023/04/22 03:29:56;;;;;;;1.83;1.40;;;21.40;41.30;;;;;;5050609;28;20037;-46
2023/04/22 03:32:22;;;;;;;1.65;1.40;;;21.40;41.30;;;;;;5052270;28;20468;-54
2023/04/22 03:34:57;;;;;;;2.05;1.40;;;21.40;41.30;;;;;;5051429;28;20440;-52
2023/04/22 03:37:25;;;;;;;2.35;1.30;;;21.40;41.30;;;;;;5052730;28;20108;-49
2023/04/22 03:39:51;;;;;;;1.73;1.50;;;21.40;41.30;;;;;;5057504;28;20028;-47
2023/04/22 03:42:18;;;;;;;1.95;1.73;;;21.40;41.30;;;;;;5061031;28;20058;-53
2023/04/22 03:44:45;;;;;;;1.95;1.45;;;21.40;41.30;;;;;;5054868;28;20072;-48
2023/04/22 03:47:11;;;;;;;1.77;1.23;;;21.40;41.30;;;;;;5051738;28;20063;-54
2023/04/22 03:49:44;;;;;;;2.38;1.30;;;21.40;41.30;;;;;;5051998;28;20036;-49
2023/04/22 03:52:10;;;;;;;1.88;1.30;;;21.40;41.30;;;;;;5049814;28;20032;-52
2023/04/22 03:54:40;;;;;;;1.60;1.30;;;21.40;41.30;;;;;;5049640;28;20090;-51
2023/04/22 03:57:07;;;;;;;2.85;1.48;;;21.40;41.30;;;;;;5052081;28;20337;-50
2023/04/22 03:59:33;;;;;;;1.85;1.63;;;21.40;41.30;;;;;;5047686;28;20032;-52
2023/04/22 04:01:59;;;;;;;2.17;1.70;;;21.40;41.30;;;;;;5053850;28;20051;-50
2023/04/22 04:04:27;;;;;;;1.73;1.52;;;21.40;41.30;;;;;;5051574;28;20043;-53
2023/04/22 04:06:58;;;;;;;1.65;1.50;;;21.40;41.30;;;;;;5052469;28;20052;-51
2023/04/22 04:09:26;;;;;;;1.63;1.40;;;21.40;41.30;;;;;;5049079;28;20062;-50
2023/04/22 04:11:52;;;;;;;2.38;1.83;;;21.40;41.30;;;;;;5048117;28;20016;-50
2023/04/22 04:14:18;;;;;;;1.40;1.30;;;21.40;41.30;;;;;;5052450;28;20056;-50
2023/04/22 04:16:45;;;;;;;2.05;1.50;;;21.40;41.30;;;;;;5050560;28;20032;-48
2023/04/22 04:19:18;;;;;;;2.88;1.48;;;21.40;41.30;;;;;;5050140;28;20463;-52
2023/04/22 04:21:44;;;;;;;2.60;1.70;;;21.40;41.30;;;;;;5051455;28;20045;-49
2023/04/22 04:24:10;;;;;;;1.83;1.52;;;21.40;41.40;;;;;;5049860;28;20033;-50
2023/04/22 04:26:42;;;;;;;1.60;1.48;;;21.40;41.40;;;;;;5051582;28;20021;-51
2023/04/22 04:29:12;;;;;;;1.77;1.50;;;21.40;41.40;;;;;;5051361;28;20633;-52
2023/04/22 04:31:41;;;;;;;2.00;1.50;;;21.40;41.40;;;;;;5050052;28;21574;-52
2023/04/22 04:34:07;;;;;;;1.65;1.55;;;21.30;41.30;;;;;;5052058;28;20029;-49
2023/04/22 04:36:35;;;;;;;1.83;1.55;;;21.40;41.40;;;;;;5052183;28;20033;-52
2023/04/22 04:39:18;;;;;;;2.42;1.67;;;21.40;41.40;;;;;;5051435;28;20159;-53
2023/04/22 04:41:44;;;;;;;1.90;1.55;;;21.30;41.30;;;;;;5048903;28;20041;-52
2023/04/22 04:44:11;;;;;;;1.70;1.60;;;21.30;41.30;;;;;;5051650;28;20510;-51
2023/04/22 04:46:38;;;;;;;1.65;1.50;;;21.40;41.40;;;;;;5051482;28;20037;-51
2023/04/22 04:49:05;;;;;;;1.83;1.30;;;21.40;41.50;;;;;;5051649;28;20044;-55
2023/04/22 04:51:38;;;;;;;2.45;1.92;;;21.40;41.50;;;;;;5047278;28;20021;-53
2023/04/22 04:54:04;;;;;;;2.42;1.70;;;21.30;41.50;;;;;;5052019;28;20087;-54
2023/04/22 04:56:36;;;;;;;2.13;1.80;;;21.30;41.50;;;;;;5051587;28;20428;-49
2023/04/22 04:59:02;;;;;;;3.08;1.80;;;21.30;41.50;;;;;;5050866;28;20032;-52
2023/04/22 05:01:28;;;;;;;2.50;1.88;;;21.40;41.50;;;;;;5055063;28;20021;-50
2023/04/22 05:03:58;;;;;;;1.80;1.60;;;21.40;41.50;;;;;;5054907;28;20349;-52
2023/04/22 05:06:25;;;;;;;2.25;1.75;;;21.40;41.50;;;;;;5054290;28;20025;-49
2023/04/22 05:08:56;;;;;;;2.65;1.95;;;21.40;41.50;;;;;;5054280;28;20079;-51
2023/04/22 05:11:22;;;;;;;2.50;1.58;;;21.40;41.50;;;;;;5056532;28;20333;-51
2023/04/22 05:13:50;;;;;;;1.67;1.50;;;21.30;41.50;;;;;;5051263;28;20397;-52
2023/04/22 05:16:22;;;;;;;2.22;1.80;;;21.40;41.60;;;;;;5054868;28;20040;-49
2023/04/22 05:18:48;;;;;;;1.92;1.73;;;21.30;41.50;;;;;;5052695;28;20021;-52
2023/04/22 05:21:15;;;;;;;2.47;1.60;;;21.30;41.50;;;;;;5055427;28;20028;-50
2023/04/22 05:23:42;;;;;;;2.10;1.73;;;21.30;41.50;;;;;;5054990;28;20063;-50
2023/04/22 05:26:08;;;;;;;2.22;1.52;;;21.30;41.60;;;;;;5054839;28;20103;-49
2023/04/22 05:28:37;;;;;;;1.98;1.58;;;21.30;41.60;;;;;;5055030;28;20029;-50
2023/04/22 05:31:04;;;;;;;2.17;1.67;;;21.30;41.60;;;;;;5051770;28;20509;-51
2023/04/22 05:33:30;;;;;;;2.05;1.80;;;21.30;41.60;;;;;;5055609;28;20021;-51
2023/04/22 05:35:56;;;;;;;2.20;1.70;;;21.30;41.60;;;;;;5054763;28;20102;-49
2023/04/22 05:38:22;;;;;;;3.30;1.88;;;21.30;41.70;;;;;;5054729;28;20025;-52
2023/04/22 05:40:48;;;;;;;1.98;1.70;;;21.20;41.70;;;;;;5052543;28;20040;-50
2023/04/22 05:43:15;;;;;;;2.65;1.92;;;21.20;41.70;;;;;;5053843;28;20056;-48
2023/04/22 05:45:45;;;;;;;2.10;1.90;;;21.20;41.70;;;;;;5053809;28;20045;-51
2023/04/22 05:48:13;;;;;;;2.78;1.95;;;21.20;41.70;;;;;;5056065;28;20048;-49
2023/04/22 05:50:48;;;;;;;2.45;1.70;;;21.20;41.80;;;;;;5054688;28;20037;-49
2023/04/22 05:53:14;;;;;;;1.85;1.67;;;21.20;41.80;;;;;;5053611;28;20374;-50
2023/04/22 05:55:41;;;;;;;2.40;1.80;;;21.20;41.80;;;;;;5068287;28;20036;-51
2023/04/22 05:58:08;;;;;;;3.65;1.90;;;21.20;41.80;;;;;;5050637;28;20368;-48
2023/04/22 06:00:45;;;;;;;2.28;2.00;;;21.20;41.90;;;;;;5054474;28;20104;-51
2023/04/22 06:03:26;;;;;;;2.10;1.70;;;21.20;42.00;;;;;;5049847;28;20439;-51
2023/04/22 06:05:52;;;;;;;2.70;1.73;;;21.20;42.00;;;;;;5048816;28;20494;-51
2023/04/22 06:08:19;;;;;;;2.38;1.70;;;21.20;42.10;;;;;;5048807;28;20057;-48
2023/04/22 06:10:45;;;;;;;2.05;1.70;;;21.20;42.10;;;;;;5054131;28;20039;-48
2023/04/22 06:13:11;;;;;;;2.10;1.90;;;21.20;42.20;;;;;;5051903;28;20028;-49
2023/04/22 06:15:37;;;;;;;2.55;2.17;;;21.10;42.20;;;;;;5053828;28;20025;-52
2023/04/22 06:18:04;;;;;;;2.70;2.20;;;21.20;42.20;;;;;;5047808;28;20064;-51
2023/04/22 06:20:31;;;;;;;4.18;1.80;;;21.10;42.20;;;;;;5052930;28;20029;-50
2023/04/22 06:22:57;;;;;;;2.55;1.90;;;21.20;42.40;;;;;;5053451;28;20045;-52
2023/04/22 06:25:24;;;;;;;2.67;2.08;;;21.10;42.40;;;;;;5056537;28;20040;-50
2023/04/22 06:27:50;;;;;;;2.92;2.08;;;21.20;42.50;;;;;;5047881;28;20026;-49
2023/04/22 06:30:22;;;;;;;2.55;2.10;;;21.10;42.50;;;;;;5053347;28;20051;-50
2023/04/22 06:32:48;;;;;;;3.15;2.10;;;21.10;42.60;;;;;;5053883;28;20116;-50
2023/04/22 06:35:14;;;;;;;3.45;2.00;;;21.10;42.60;;;;;;5052426;28;20026;-50
2023/04/22 06:37:40;;;;;;;5.65;2.20;;;21.10;42.70;;;;;;5042230;28;20388;-52
2023/04/22 06:40:08;;;;;;;2.58;1.98;;;21.20;42.70;;;;;;5035735;28;20404;-50
2023/04/22 06:42:45;;;;;;;3.05;2.00;;;21.10;42.70;;;;;;5049242;28;20080;-52
2023/04/22 06:45:30;;;;;;;2.88;2.00;;;21.10;42.80;;;;;;5051941;28;20082;-50
2023/04/22 06:48:14;;;;;;;2.78;2.03;;;21.10;42.80;;;;;;5045252;28;20487;-48
2023/04/22 06:51:00;;;;;;;3.45;2.42;;;21.10;42.80;;;;;;5035965;28;20052;-50
2023/04/22 06:53:26;;;;;;;3.95;2.38;;;21.10;42.90;;;;;;5051675;28;20025;-53
2023/04/22 06:55:53;;;;;;;2.58;2.05;;;21.20;43.00;;;;;;5054765;28;20040;-53
2023/04/22 06:58:20;;;;;;;2.13;1.92;;;21.20;43.00;;;;;;5051106;28;20091;-54
2023/04/22 07:00:47;;;;;;;2.65;2.20;;;21.20;43.10;;;;;;5051049;28;20363;-54
2023/04/22 07:03:13;;;;;;;2.80;1.70;;;21.20;43.20;;;;;;5044227;28;20040;-48
2023/04/22 07:05:40;;;;;;;2.65;1.75;;;21.20;43.30;;;;;;5040614;28;20113;-47
2023/04/22 07:08:07;;;;;;;2.55;1.85;;;21.20;44.00;;;;;;5057717;28;20083;-53
2023/04/22 07:10:33;;;;;;;3.42;1.98;;;21.20;44.10;;;;;;5060598;28;20441;-49
2023/04/22 07:13:18;;;;;;;2.90;1.60;;;21.20;43.50;;;;;;5050247;28;20099;-50
2023/04/22 07:15:45;;;;;;;3.00;1.70;;;21.30;43.60;;;;;;5054435;28;20450;-47
2023/04/22 07:18:11;;;;;;;2.80;1.80;;;21.30;43.60;;;;;;5050517;28;20037;-50
2023/04/22 07:20:37;;;;;;;3.97;1.90;;;21.30;43.60;;;;;;5056297;28;20044;-51
2023/04/22 07:23:02;;;;;;;2.05;1.42;;;21.30;43.60;;;;;;5052230;28;20029;-51
2023/04/22 07:25:28;;;;;;;3.42;1.83;;;21.40;43.70;;;;;;5050708;28;20048;-51
2023/04/22 07:27:54;;;;;;;3.05;1.88;;;21.40;43.70;;;;;;5052442;28;20020;-50
2023/04/22 07:30:20;;;;;;;4.07;1.55;;;21.40;44.00;;;;;;5052412;28;20025;-48
2023/04/22 07:32:46;;;;;;;2.45;1.80;;;21.40;44.00;;;;;;5053984;28;20524;-48
2023/04/22 07:35:12;;;;;;;2.53;1.83;;;21.50;44.10;;;;;;5051305;28;20033;-50
2023/04/22 07:37:37;;;;;;;2.80;1.80;;;21.50;44.10;;;;;;5051473;28;20035;-53
2023/04/22 07:40:04;;;;;;;2.38;1.90;;;21.50;44.10;;;;;;5052948;28;20040;-46
2023/04/22 07:42:30;;;;;;;3.55;1.80;;;21.50;44.10;;;;;;5052673;28;20432;-49
2023/04/22 07:44:56;;;;;;;2.42;1.85;;;21.50;44.10;;;;;;5053114;28;20053;-48
2023/04/22 07:47:22;;;;;;;3.63;1.80;;;21.60;44.10;;;;;;5050942;28;20029;-48
2023/04/22 07:49:48;;;;;;;3.78;2.00;;;21.60;44.00;;;;;;5053040;28;20029;-50
2023/04/22 07:52:14;;;;;;;2.33;1.92;;;21.60;44.00;;;;;;5050789;28;20053;-51
2023/04/22 07:54:40;;;;;;;2.22;1.85;;;21.60;43.90;;;;;;5053364;28;20047;-47
2023/04/22 07:57:05;;;;;;;3.17;1.90;;;21.60;43.90;;;;;;5056539;28;20032;-47
2023/04/22 07:59:31;;;;;;;2.00;1.50;;;21.70;44.00;;;;;;5051174;28;20021;-48
2023/04/22 08:01:57;;;;;;;2.88;2.00;;;21.70;44.00;;;;;;5052290;28;20037;-48
2023/04/22 08:04:23;;;;;;;2.40;1.77;;;21.70;44.00;;;;;;5051829;28;20052;-53
2023/04/22 08:06:49;;;;;;;2.22;1.88;;;21.70;44.00;;;;;;5051912;28;20025;-50
2023/04/22 08:09:14;;;;;;;3.75;2.17;;;21.70;43.90;;;;;;5052272;28;20025;-46
2023/04/22 08:11:40;;;;;;;2.08;1.77;;;21.70;43.90;;;;;;5053303;28;20045;-48
2023/04/22 08:14:06;;;;;;;2.30;1.70;;;21.70;43.90;;;;;;5049608;28;20029;-47
2023/04/22 08:16:32;;;;;;;2.10;1.63;;;21.70;43.80;;;;;;5049722;28;20108;-49
2023/04/22 08:18:58;;;;;;;2.53;1.48;;;21.80;43.80;;;;;;5053001;28;20059;-48
2023/04/22 08:21:23;;;;;;;2.67;1.50;;;21.70;43.70;;;;;;5036478;28;20080;-52
2023/04/22 08:23:49;;;;;;;2.17;1.67;;;21.80;43.80;;;;;;5049531;28;20032;-48
2023/04/22 08:26:15;;;;;;;2.40;1.73;;;21.80;43.70;;;;;;5053049;28;20082;-49
2023/04/22 08:28:42;;;;;;;2.25;1.42;;;21.80;43.70;;;;;;5051393;28;20021;-46
2023/04/22 08:31:09;;;;;;;2.28;1.50;;;21.80;43.60;;;;;;5081521;28;20036;-52
2023/04/22 08:33:35;;;;;;;2.40;1.60;;;21.80;43.60;;;;;;5053633;28;20075;-49
2023/04/22 08:36:02;;;;;;;2.10;1.77;;;21.80;43.60;;;;;;5052257;28;20029;-51
2023/04/22 08:38:28;;;;;;;2.50;1.52;;;21.80;43.50;;;;;;5054484;28;20084;-50
2023/04/22 08:40:56;;;;;;;2.10;1.60;;;21.80;43.50;;;;;;5054841;28;20421;-50
2023/04/22 08:43:25;;;;;;;2.38;1.60;;;21.80;43.50;;;;;;5056017;28;20041;-49
2023/04/22 08:45:51;;;;;;;2.47;1.52;;;21.80;43.60;;;;;;5052261;28;20042;-50
2023/04/22 08:48:18;;;;;;;2.33;1.67;;;21.80;43.70;;;;;;5050169;28;20032;-48
2023/04/22 08:50:46;;;;;;;1.98;1.35;;;21.80;43.90;;;;;;5058752;28;20052;-51
2023/04/22 08:53:13;;;;;;;1.77;1.52;;;21.90;44.00;;;;;;5054608;28;20025;-58
2023/04/22 08:55:43;;;;;;;4.70;1.77;;;21.90;44.00;;;;;;5053682;28;20110;-50
2023/04/22 08:58:11;;;;;;;2.15;1.50;;;21.90;43.80;;;;;;5053335;28;20033;-54
2023/04/22 09:00:38;;;;;;;2.28;1.38;;;21.90;43.70;;;;;;5053333;28;20032;-50
2023/04/22 09:03:06;;;;;;;2.85;1.42;;;21.90;43.60;;;;;;5048145;28;20384;-56
2023/04/22 09:05:33;;;;;;;2.38;1.63;;;21.90;43.60;;;;;;5055154;28;20035;-53
2023/04/22 09:08:01;;;;;;;1.95;1.55;;;21.90;43.60;;;;;;5054130;28;20037;-53
2023/04/22 09:10:27;;;;;;;2.25;1.58;;;21.90;43.60;;;;;;5053053;28;20108;-50
2023/04/22 09:12:53;;;;;;;2.13;1.60;;;21.90;43.60;;;;;;5056813;28;20025;-47
2023/04/22 09:15:19;;;;;;;2.35;1.65;;;21.90;43.60;;;;;;5056171;28;20033;-50
2023/04/22 09:17:45;;;;;;;2.60;1.77;;;21.90;43.60;;;;;;5055193;28;20510;-50
2023/04/22 09:20:11;;;;;;;1.77;1.38;;;21.90;43.70;;;;;;5051967;28;20122;-58
2023/04/22 09:22:45;;;;;;;4.20;1.60;;;21.90;43.70;;;;;;5054009;28;20044;-50
2023/04/22 09:25:22;;;;;;;2.57;1.70;;;21.90;43.80;;;;;;5056809;28;20379;-52
2023/04/22 09:27:53;;;;;;;1.45;1.33;;;22.00;44.10;;;;;;5045501;28;20035;-50
2023/04/22 09:30:30;;;;;;;2.45;1.50;;;22.00;44.40;;;;;;5053177;28;20326;-50
2023/04/22 09:32:57;;;;;;;3.40;1.50;;;22.00;44.70;;;;;;5053056;28;20032;-50
2023/04/22 09:35:38;;;;;;;4.90;1.90;;;22.00;44.90;;;;;;5055629;28;20021;-51
2023/04/22 09:38:09;;;;;;;3.10;1.80;;;22.00;45.70;;;;;;5082653;28;20426;-50
2023/04/22 09:40:36;;;;;;;4.47;1.65;;;22.10;45.20;;;;;;5054089;28;20108;-51
2023/04/22 09:43:05;;;;;;;1.90;1.48;;;22.10;45.90;;;;;;5052231;28;20032;-48
2023/04/22 09:45:34;;;;;;;2.88;1.55;;;22.10;45.40;;;;;;5053431;28;20044;-52
2023/04/22 09:48:06;;;;;;;4.43;1.60;;;22.10;45.50;;;;;;5055393;28;20044;-49
2023/04/22 09:50:32;;;;;;;4.57;1.65;;;22.10;45.50;;;;;;5056001;28;20041;-46
2023/04/22 09:53:07;;;;;;;2.15;1.48;;;22.10;45.60;;;;;;5053282;28;20032;-52
2023/04/22 09:55:34;;;;;;;;;;;22.10;45.70;;;;;;5056373;28;20112;-53
2023/04/22 09:58:11;;;;;;;4.20;1.80;;;22.20;45.80;;;;;;5053842;28;20012;-49
2023/04/22 10:01:03;;;;;;;4.55;1.60;;;22.20;45.80;;;;;;5053027;28;20029;-51
2023/04/22 10:03:28;;;;;;;2.58;1.70;;;22.20;45.80;;;;;;5049267;28;20064;-53
2023/04/22 10:05:57;;;;;;;1.85;1.50;;;22.20;45.70;;;;;;5060363;28;20025;-51
2023/04/22 10:08:23;;;;;;;3.65;1.58;;;22.20;45.80;;;;;;5055499;28;20107;-48
2023/04/22 10:10:49;;;;;;;6.55;1.77;;;22.30;46.20;;;;;;5051658;28;20029;-51
2023/04/22 10:13:15;;;;;;;4.22;1.75;;;22.30;46.30;;;;;;5055592;28;20033;-51
2023/04/22 10:15:47;;;;;;;3.25;1.77;;;22.30;46.10;;;;;;5054414;28;20029;-48
2023/04/22 10:18:24;;;;;;;5.50;1.75;;;22.40;45.90;;;;;;5052580;28;20510;-48
2023/04/22 10:20:52;;;;;;;2.03;1.60;;;22.40;45.70;;;;;;5054968;28;20562;-48
2023/04/22 10:23:21;;;;;;;2.17;1.38;;;22.40;45.50;;;;;;5052475;28;20052;-50
2023/04/22 10:25:50;;;;;;;2.97;1.92;;;22.40;45.40;;;;;;5055081;28;20033;-47
2023/04/22 10:28:17;;;;;;;4.00;1.40;;;22.50;45.30;;;;;;5053997;28;20082;-47
2023/04/22 10:30:43;;;;;;;2.75;1.60;;;22.50;45.20;;;;;;5041411;28;20385;-50
2023/04/22 10:33:27;;;;;;;1.70;1.38;;;22.50;45.10;;;;;;5046020;28;20171;-52
2023/04/22 10:36:18;;;;;;;3.03;1.50;;;22.50;45.10;;;;;;5044433;28;20053;-52
2023/04/22 10:38:53;;;;;;;2.05;1.50;;;22.50;45.00;;;;;;5043450;28;20037;-48
2023/04/22 10:41:29;;;;;;;1.63;1.40;;;22.50;44.90;;;;;;5047217;28;20524;-49
2023/04/22 10:43:57;;;;;;;2.03;1.48;;;22.50;45.50;;;;;;5044715;28;20036;-48
2023/04/22 10:46:44;;;;;;;3.63;1.67;;;22.60;44.90;;;;;;5045403;28;20044;-47
2023/04/22 10:49:19;;;;;;;1.70;1.60;;;22.60;44.80;;;;;;5049960;28;20356;-48
2023/04/22 10:51:50;;;;;;;2.13;1.60;;;22.60;44.70;;;;;;5056195;28;20029;-47
2023/04/22 10:54:28;;;;;;;1.88;1.38;;;22.60;44.70;;;;;;5052566;28;20040;-47
2023/04/22 10:57:07;;;;;;;5.78;1.33;;;22.60;44.60;;;;;;5052901;28;20047;-51
2023/04/22 10:59:44;;;;;;;2.75;2.00;;;22.70;44.60;;;;;;5043545;28;20020;-48
2023/04/22 11:02:12;;;;;;;3.22;1.63;;;22.60;44.50;;;;;;5046745;28;20044;-46
2023/04/22 11:04:38;;;;;;;1.77;1.40;;;22.70;44.50;;;;;;5046986;28;20033;-47
2023/04/22 11:07:21;;;;;;;2.25;1.40;;;22.70;44.50;;;;;;5047683;28;20087;-47
2023/04/22 11:10:08;;;;;;;4.57;1.60;;;22.70;44.50;;;;;;5048701;28;20112;-54
2023/04/22 11:12:37;;;;;;;1.83;1.38;;;22.70;44.40;;;;;;5040431;28;20030;-54
2023/04/22 11:15:12;;;;;;;2.92;1.48;;;22.70;44.40;;;;;;5045535;28;20021;-52
2023/04/22 11:17:46;;;;;;;2.25;1.80;;;22.70;44.40;;;;;;5046734;28;20116;-47
2023/04/22 11:20:17;;;;;;;3.08;1.65;;;22.80;44.40;;;;;;5053951;28;20108;-48
2023/04/22 11:22:51;;;;;;;2.13;1.33;;;22.80;44.40;;;;;;5052185;28;20068;-50
2023/04/22 11:25:17;;;;;;;1.85;1.35;;;22.80;44.40;;;;;;5055628;28;20025;-50
2023/04/22 11:27:44;;;;;;;2.75;1.60;;;22.80;44.40;;;;;;5053171;28;20440;-48
2023/04/22 11:30:13;;;;;;;2.85;1.83;;;22.80;44.40;;;;;;5053455;28;20471;-50
2023/04/22 11:32:52;;;;;;;1.80;1.30;;;22.80;44.40;;;;;;5053028;28;20036;-50
2023/04/22 11:35:32;;;;;;;2.05;1.35;;;22.80;44.40;;;;;;5034816;28;20036;-51
2023/04/22 11:38:03;;;;;;;1.80;1.35;;;22.80;44.30;;;;;;5037557;28;20118;-47
2023/04/22 11:40:36;;;;;;;1.80;1.40;;;22.80;44.20;;;;;;5035932;28;20037;-48
2023/04/22 11:43:06;;;;;;;1.92;1.60;;;22.80;44.20;;;;;;5036733;28;20048;-48
2023/04/22 11:45:34;;;;;;;2.05;1.30;;;22.90;44.10;;;;;;5035212;28;20056;-47
2023/04/22 11:48:00;;;;;;;1.73;1.45;;;22.90;44.10;;;;;;5045218;28;20025;-48
2023/04/22 11:50:32;;;;;;;1.40;1.30;;;22.90;44.00;;;;;;5036651;28;20146;-51
2023/04/22 11:53:03;;;;;;;2.33;1.70;;;22.90;43.90;;;;;;5049565;28;20029;-45
2023/04/22 11:55:31;;;;;;;3.75;1.90;;;22.90;43.90;;;;;;5046967;28;20048;-47
2023/04/22 11:57:59;;;;;;;1.70;1.58;;;22.90;43.80;;;;;;5038601;28;20036;-52
2023/04/22 12:00:36;;;;;;;2.67;1.50;;;22.90;43.80;;;;;;5031764;28;20449;-45
2023/04/22 12:03:21;;;;;;;2.50;1.55;;;22.90;43.70;;;;;;5041837;28;20041;-49
2023/04/22 12:06:00;;;;;;;2.42;1.30;;;22.90;43.80;;;;;;5035118;28;20021;-49
2023/04/22 12:08:46;;;;;;;1.92;1.40;;;22.90;43.70;;;;;;5042783;28;20375;-46
2023/04/22 12:11:12;;;;;;;2.80;1.45;;;22.90;43.70;;;;;;5038889;28;20440;-51
2023/04/22 12:13:41;;;;;;;3.75;1.48;;;22.90;43.70;;;;;;5042935;28;20029;-46
2023/04/22 12:16:19;;;;;;;2.55;1.33;;;22.90;43.90;;;;;;5034714;28;20033;-48
2023/04/22 12:18:54;;;;;;;4.18;1.60;;;22.90;43.90;;;;;;5043085;28;20074;-46
2023/04/22 12:21:24;;;;;;;2.65;1.58;;;22.90;43.80;;;;;;5043998;28;20044;-51
2023/04/22 12:23:56;;;;;;;2.65;1.90;;;22.90;43.80;;;;;;5040468;28;20041;-48
2023/04/22 12:26:23;;;;;;;2.08;1.25;;;22.90;43.90;;;;;;5033084;28;20100;-49
2023/04/22 12:28:50;;;;;;;2.97;1.98;;;22.90;44.00;;;;;;5035562;28;20041;-48
2023/04/22 12:31:16;;;;;;;2.33;1.65;;;22.90;44.00;;;;;;5040355;28;20090;-49
2023/04/22 12:33:44;;;;;;;2.10;1.65;;;22.90;44.10;;;;;;5031357;28;20360;-51
2023/04/22 12:36:10;;;;;;;2.67;1.33;;;22.90;44.10;;;;;;5039452;28;20036;-52
2023/04/22 12:38:36;;;;;;;2.15;1.63;;;22.90;44.10;;;;;;5038571;28;20040;-50
2023/04/22 12:41:03;;;;;;;1.83;1.60;;;22.80;44.10;;;;;;5038209;28;20033;-51
2023/04/22 12:43:31;;;;;;;2.85;1.52;;;22.80;44.20;;;;;;5036107;28;20088;-50
2023/04/22 12:45:57;;;;;;;4.30;1.80;;;22.80;44.30;;;;;;5039978;28;20075;-46
2023/04/22 12:48:23;;;;;;;3.03;1.55;;;22.80;44.30;;;;;;5032282;28;20412;-49
2023/04/22 12:50:49;;;;;;;1.98;1.42;;;22.80;44.40;;;;;;5036814;28;20040;-52
2023/04/22 12:53:15;;;;;;;3.53;1.67;;;22.80;45.20;;;;;;5036431;28;20025;-46